Time;durP1;ratioP1;P1;durP2;ratioP2;P2;SDS_P1;SDS_P2;PMS_P1;PMS_P2;Temp;Humidity;BMP_temperature;BMP_pressure;BME280_temperature;BME280_humidity;BME280_pressure;Samples;Min_cycle;Max_cycle;Signal;HPM_P1;HPM_P2
2023/06/07 00:00:20;;;;;;;6.53;1.87;;;;;;;19.50;59.99;101384.69;5032642;28;20477;-67
2023/06/07 00:02:47;;;;;;;6.37;2.37;;;;;;;19.49;60.30;101385.84;5035497;28;20506;-67
2023/06/07 00:05:14;;;;;;;6.03;2.00;;;;;;;19.50;60.22;101384.69;5035806;28;21001;-67
2023/06/07 00:07:42;;;;;;;6.07;2.00;;;;;;;19.45;60.34;101382.97;5036184;28;20467;-67
2023/06/07 00:10:10;;;;;;;7.50;2.67;;;;;;;19.41;59.70;101382.84;5036030;28;20443;-66
2023/06/07 00:12:37;;;;;;;7.83;1.93;;;;;;;19.40;59.80;101383.97;5035865;28;20972;-66
2023/06/07 00:15:04;;;;;;;6.50;1.90;;;;;;;19.40;59.41;101378.47;5035649;28;20936;-66
2023/06/07 00:17:31;;;;;;;6.87;2.37;;;;;;;19.45;59.62;101379.41;5035995;28;20806;-66
2023/06/07 00:19:57;;;;;;;6.40;2.07;;;;;;;19.46;59.52;101373.56;5035901;28;20447;-66
2023/06/07 00:22:25;;;;;;;6.20;2.60;;;;;;;19.44;59.35;101375.06;5035433;28;20490;-66
2023/06/07 00:24:53;;;;;;;8.83;2.27;;;;;;;19.42;59.43;101370.69;5035828;28;20479;-66
2023/06/07 00:27:20;;;;;;;5.00;1.50;;;;;;;19.44;60.22;101369.56;5035688;28;20487;-66
2023/06/07 00:29:47;;;;;;;4.93;1.53;;;;;;;19.40;59.93;101372.19;5035701;28;20442;-66
2023/06/07 00:32:13;;;;;;;6.37;2.13;;;;;;;19.37;60.71;101370.13;5035460;28;20566;-67
2023/06/07 00:34:40;;;;;;;7.67;2.03;;;;;;;19.38;61.28;101367.03;5035621;28;20439;-66
2023/06/07 00:37:06;;;;;;;6.53;2.13;;;;;;;19.35;60.26;101373.22;5035543;28;20441;-66
2023/06/07 00:39:33;;;;;;;6.70;2.30;;;;;;;19.35;60.27;101367.72;5035513;28;20486;-66
2023/06/07 00:42:01;;;;;;;8.87;2.30;;;;;;;19.34;60.67;101366.09;5035355;28;20467;-65
2023/06/07 00:44:27;;;;;;;5.70;1.70;;;;;;;19.35;60.36;101372.41;5035437;28;20444;-66
2023/06/07 00:46:54;;;;;;;6.03;2.23;;;;;;;19.33;60.79;101371.94;5035100;28;20526;-66
2023/06/07 00:49:21;;;;;;;5.47;1.87;;;;;;;19.30;60.84;101367.94;5035366;28;20469;-66
2023/06/07 00:51:48;;;;;;;6.70;1.93;;;;;;;19.26;61.34;101366.22;5034874;28;20582;-66
2023/06/07 00:54:17;;;;;;;5.90;1.90;;;;;;;19.27;61.79;101376.06;5035270;28;20471;-66
2023/06/07 00:56:44;;;;;;;5.83;1.60;;;;;;;19.27;61.32;101371.38;5035928;28;20448;-65
2023/06/07 00:59:12;;;;;;;5.83;1.87;;;;;;;19.27;62.17;101374.13;5035221;28;20450;-66
2023/06/07 01:01:39;;;;;;;7.10;2.20;;;;;;;19.23;62.14;101375.94;5034779;28;20467;-66
2023/06/07 01:04:06;;;;;;;9.80;2.23;;;;;;;19.22;62.02;101368.84;5034834;28;20974;-68
2023/06/07 01:06:32;;;;;;;5.90;2.13;;;;;;;19.17;62.36;101371.81;5035060;28;20513;-66
2023/06/07 01:08:59;;;;;;;7.87;2.87;;;;;;;19.15;62.53;101377.63;5034663;28;20449;-66
2023/06/07 01:11:26;;;;;;;6.57;2.47;;;;;;;19.13;61.60;101370.88;5034445;28;20481;-66
2023/06/07 01:13:54;;;;;;;5.87;1.73;;;;;;;19.06;60.58;101365.13;5033800;28;20526;-66
2023/06/07 01:16:22;;;;;;;6.00;1.70;;;;;;;19.06;62.25;101371.44;5034850;28;20858;-66
2023/06/07 01:18:49;;;;;;;5.57;1.80;;;;;;;19.07;62.84;101369.47;5034892;28;20479;-67
2023/06/07 01:21:19;;;;;;;5.63;1.77;;;;;;;19.04;62.27;101370.97;5034658;28;20450;-67
2023/06/07 01:23:49;;;;;;;6.23;1.97;;;;;;;19.03;62.99;101371.28;5034647;28;20447;-66
2023/06/07 01:26:17;;;;;;;7.37;1.77;;;;;;;19.02;62.78;101369.69;5034576;28;20924;-66
2023/06/07 01:28:45;;;;;;;5.60;1.70;;;;;;;19.03;63.37;101374.03;5034604;28;20537;-66
2023/06/07 01:31:12;;;;;;;6.30;2.40;;;;;;;19.02;63.57;101372.44;5034620;28;20868;-67
2023/06/07 01:33:42;;;;;;;7.40;2.60;;;;;;;18.99;63.34;101368.44;5034183;28;20483;-66
2023/06/07 01:36:10;;;;;;;5.97;2.20;;;;;;;18.98;62.49;101361.31;5034130;28;20443;-67
2023/06/07 01:38:39;;;;;;;6.60;2.47;;;;;;;18.97;62.48;101356.19;5034221;28;21012;-66
2023/06/07 01:41:08;;;;;;;5.97;2.07;;;;;;;18.97;61.67;101358.94;5034058;28;20453;-67
2023/06/07 01:43:36;;;;;;;6.27;2.00;;;;;;;18.97;61.97;101358.94;5033911;28;20964;-65
2023/06/07 01:46:04;;;;;;;13.33;2.00;;;;;;;18.96;62.84;101355.38;5034340;28;20814;-65
2023/06/07 01:48:30;;;;;;;6.60;2.70;;;;;;;18.93;62.66;101355.25;5033914;28;20929;-65
2023/06/07 01:50:57;;;;;;;8.13;2.27;;;;;;;18.93;62.85;101355.25;5034352;28;20449;-65
2023/06/07 01:53:23;;;;;;;6.77;2.60;;;;;;;18.93;62.40;101349.75;5034043;28;20569;-65
2023/06/07 01:55:59;;;;;;;7.00;2.30;;;;;;;18.92;62.07;101342.69;5033781;28;20966;-65
2023/06/07 01:58:35;;;;;;;12.40;2.73;;;;;;;18.88;62.47;101342.53;5034085;28;20435;-66
2023/06/07 02:01:13;;;;;;;5.67;1.87;;;;;;;18.84;62.64;101342.41;5033804;28;20490;-65
2023/06/07 02:03:43;;;;;;;5.63;1.57;;;;;;;18.83;62.39;101340.81;5033606;28;20458;-66
2023/06/07 02:06:14;;;;;;;7.60;2.50;;;;;;;18.81;62.86;101342.28;5034060;28;20431;-66
2023/06/07 02:08:47;;;;;;;5.60;2.07;;;;;;;18.79;63.26;101345.38;5033919;28;20424;-65
2023/06/07 02:11:16;;;;;;;6.23;2.30;;;;;;;18.80;64.36;101341.47;5033926;28;20427;-67
2023/06/07 02:13:44;;;;;;;6.47;2.50;;;;;;;18.79;64.83;101344.56;5033733;28;20585;-66
2023/06/07 02:16:12;;;;;;;6.20;2.27;;;;;;;18.77;65.31;101347.66;5033455;28;20847;-66
2023/06/07 02:18:40;;;;;;;8.23;2.00;;;;;;;18.75;64.79;101344.44;5033768;28;20829;-66
2023/06/07 02:21:07;;;;;;;9.33;2.57;;;;;;;18.72;64.11;101350.59;5033452;28;20502;-66
2023/06/07 02:23:33;;;;;;;6.10;2.03;;;;;;;18.72;65.40;101344.31;5033040;28;20505;-65
2023/06/07 02:26:00;;;;;;;6.53;1.93;;;;;;;18.67;65.95;101343.34;5033639;28;20530;-66
2023/06/07 02:28:27;;;;;;;6.53;2.30;;;;;;;18.64;64.68;101343.25;5033595;28;20474;-65
2023/06/07 02:30:57;;;;;;;6.10;2.23;;;;;;;18.61;64.68;101338.41;5033516;28;20449;-66
2023/06/07 02:33:25;;;;;;;5.77;1.77;;;;;;;18.60;65.33;101343.09;5033073;28;20992;-65
2023/06/07 02:35:51;;;;;;;5.57;1.90;;;;;;;18.55;64.79;101346.06;5033484;28;20439;-66
2023/06/07 02:38:18;;;;;;;8.27;2.50;;;;;;;18.54;65.55;101338.94;5033085;28;20482;-66
2023/06/07 02:40:45;;;;;;;5.73;1.93;;;;;;;18.53;65.32;101342.03;5033134;28;20482;-67
2023/06/07 02:43:12;;;;;;;6.60;2.07;;;;;;;18.51;65.26;101345.13;5033029;28;20975;-67
2023/06/07 02:45:38;;;;;;;5.87;1.93;;;;;;;18.50;64.93;101348.19;5033307;28;20450;-64
2023/06/07 02:48:07;;;;;;;5.80;1.90;;;;;;;18.48;65.14;101339.50;5033320;28;20439;-66
2023/06/07 02:50:33;;;;;;;5.87;1.90;;;;;;;18.48;65.25;101345.00;5033368;28;20447;-65
2023/06/07 02:53:01;;;;;;;7.13;2.30;;;;;;;18.45;64.91;101338.22;5033164;28;20920;-66
2023/06/07 02:55:28;;;;;;;6.70;2.37;;;;;;;18.45;65.65;101340.16;5033300;28;20887;-66
2023/06/07 02:57:55;;;;;;;5.80;1.93;;;;;;;18.41;66.22;101342.78;5033317;28;20540;-66
2023/06/07 03:00:21;;;;;;;9.40;2.37;;;;;;;18.40;66.18;101338.44;5033268;28;20446;-66
2023/06/07 03:02:48;;;;;;;6.53;2.10;;;;;;;18.35;66.40;101342.19;5032885;28;20475;-66
2023/06/07 03:05:17;;;;;;;6.97;2.57;;;;;;;18.33;66.51;101340.94;5033238;28;20450;-67
2023/06/07 03:07:43;;;;;;;6.40;2.03;;;;;;;18.30;66.99;101347.06;5033154;28;20521;-67
2023/06/07 03:10:10;;;;;;;7.07;2.90;;;;;;;18.29;67.41;101340.78;5033105;28;20471;-66
2023/06/07 03:12:37;;;;;;;7.23;2.30;;;;;;;18.27;67.06;101353.22;5032883;28;20497;-66
2023/06/07 03:15:05;;;;;;;6.73;2.07;;;;;;;18.27;67.37;101350.47;5032988;28;20451;-66
2023/06/07 03:17:31;;;;;;;7.37;2.13;;;;;;;18.23;67.44;101347.59;5033485;28;20486;-67
2023/06/07 03:19:58;;;;;;;5.67;1.93;;;;;;;18.21;68.24;101349.88;5032984;28;20490;-67
2023/06/07 03:22:26;;;;;;;5.30;1.60;;;;;;;18.22;67.47;101348.72;5032903;28;20477;-66
2023/06/07 03:24:54;;;;;;;7.53;1.87;;;;;;;18.18;66.39;101353.28;5032668;28;20453;-66
2023/06/07 03:27:23;;;;;;;6.57;1.83;;;;;;;18.18;66.81;101347.78;5032995;28;20449;-66
2023/06/07 03:29:50;;;;;;;5.70;2.00;;;;;;;18.14;67.10;101350.41;5033016;28;20497;-66
2023/06/07 03:32:17;;;;;;;6.70;1.90;;;;;;;18.14;66.60;101344.91;5032829;28;20463;-66
2023/06/07 03:34:44;;;;;;;6.73;1.80;;;;;;;18.17;66.91;101348.94;5032913;28;20813;-66
2023/06/07 03:37:10;;;;;;;5.57;1.80;;;;;;;18.18;65.69;101357.97;5035410;28;20814;-67
2023/06/07 03:39:38;;;;;;;6.00;1.80;;;;;;;18.19;66.40;101354.09;5037138;28;20439;-66
2023/06/07 03:42:06;;;;;;;6.60;2.30;;;;;;;18.20;66.11;101359.25;5036569;28;20902;-66
2023/06/07 03:44:32;;;;;;;6.80;2.50;;;;;;;18.21;67.00;101358.09;5036601;28;20439;-66
2023/06/07 03:46:59;;;;;;;7.13;2.27;;;;;;;18.26;67.70;101359.84;5036427;28;20485;-66
2023/06/07 03:49:26;;;;;;;6.13;2.07;;;;;;;18.30;68.54;101367.06;5036500;28;20450;-65
2023/06/07 03:51:53;;;;;;;6.87;2.10;;;;;;;18.31;70.00;101360.44;5036411;28;20498;-66
2023/06/07 03:54:20;;;;;;;7.53;2.23;;;;;;;18.33;70.34;101366.41;5036341;28;20483;-66
2023/06/07 03:56:48;;;;;;;6.63;2.30;;;;;;;18.35;69.95;101360.59;5036236;28;20467;-65
2023/06/07 03:59:15;;;;;;;8.07;2.60;;;;;;;18.36;69.46;101359.44;5036865;28;20449;-67
2023/06/07 04:01:41;;;;;;;6.60;2.37;;;;;;;18.39;69.68;101361.53;5036075;28;21496;-66
2023/06/07 04:04:09;;;;;;;5.90;1.80;;;;;;;18.41;69.78;101356.50;5036615;28;20526;-66
2023/06/07 04:06:36;;;;;;;5.57;1.90;;;;;;;18.44;70.33;101361.31;5036044;28;20970;-65
2023/06/07 04:09:03;;;;;;;7.83;2.33;;;;;;;18.49;70.81;101350.13;5036134;28;20818;-68
2023/06/07 04:11:31;;;;;;;5.23;1.87;;;;;;;18.53;70.63;101358.50;5036071;28;20443;-66
2023/06/07 04:13:59;;;;;;;6.80;2.27;;;;;;;18.56;70.92;101352.34;5035968;28;20519;-65
2023/06/07 04:16:25;;;;;;;7.90;3.00;;;;;;;18.61;71.38;101358.44;5035895;28;20952;-66
2023/06/07 04:18:52;;;;;;;6.10;1.93;;;;;;;18.61;70.32;101357.63;5035951;28;20483;-66
2023/06/07 04:21:18;;;;;;;6.20;2.17;;;;;;;18.67;68.47;101362.56;5035442;28;20935;-66
2023/06/07 04:23:45;;;;;;;22.27;2.60;;;;;;;18.71;68.41;101353.69;5035809;28;20443;-66
2023/06/07 04:26:12;;;;;;;6.67;2.40;;;;;;;18.75;68.61;101360.91;5035825;28;20545;-66
2023/06/07 04:28:40;;;;;;;5.93;2.03;;;;;;;18.78;68.60;101360.25;5035737;28;20445;-66
2023/06/07 04:31:08;;;;;;;6.03;2.00;;;;;;;18.80;68.98;101362.66;5035671;28;20455;-66
2023/06/07 04:33:35;;;;;;;8.10;2.73;;;;;;;18.78;69.61;101352.00;5035210;28;20487;-65
2023/06/07 04:36:02;;;;;;;6.07;2.10;;;;;;;18.79;69.21;101366.53;5035316;28;20489;-66
2023/06/07 04:38:29;;;;;;;7.77;2.17;;;;;;;18.80;65.22;101357.16;5035664;28;20835;-66
2023/06/07 04:40:56;;;;;;;6.80;2.23;;;;;;;18.78;63.91;101357.50;5035550;28;20450;-65
2023/06/07 04:43:23;;;;;;;7.10;2.70;;;;;;;18.82;64.07;101352.16;5035438;28;20562;-66
2023/06/07 04:45:54;;;;;;;5.77;2.03;;;;;;;18.82;63.85;101355.69;5035359;28;20523;-66
2023/06/07 04:48:23;;;;;;;5.93;1.97;;;;;;;18.87;65.83;101358.22;5035170;28;20419;-66
2023/06/07 04:50:50;;;;;;;6.87;1.97;;;;;;;18.93;66.02;101366.25;5034972;28;20447;-66
2023/06/07 04:53:19;;;;;;;5.77;1.70;;;;;;;18.97;67.05;101367.97;5035171;28;20527;-67
2023/06/07 04:55:47;;;;;;;6.07;2.10;;;;;;;19.04;67.43;101364.69;5035265;28;20534;-66
2023/06/07 04:58:15;;;;;;;7.13;2.33;;;;;;;19.10;67.33;101372.34;5035100;28;20444;-66
2023/06/07 05:00:42;;;;;;;6.07;2.20;;;;;;;19.17;67.42;101374.56;5035098;28;20440;-66
2023/06/07 05:03:09;;;;;;;7.80;1.93;;;;;;;19.22;67.15;101368.03;5036003;28;20853;-66
2023/06/07 05:05:37;;;;;;;7.80;2.23;;;;;;;19.26;66.35;101367.03;5034708;28;20534;-66
2023/06/07 05:08:05;;;;;;;6.33;2.10;;;;;;;19.31;67.07;101369.53;5035015;28;20443;-66
2023/06/07 05:10:32;;;;;;;6.60;2.00;;;;;;;19.35;66.39;101367.72;5034530;28;20995;-65
2023/06/07 05:12:59;;;;;;;6.57;2.30;;;;;;;19.41;65.93;101371.84;5034755;28;20558;-66
2023/06/07 05:15:26;;;;;;;9.50;2.33;;;;;;;19.48;66.31;101374.03;5034834;28;20458;-66
2023/06/07 05:17:53;;;;;;;6.40;2.20;;;;;;;19.54;66.01;101369.91;5034684;28;20452;-66
2023/06/07 05:20:24;;;;;;;5.90;1.70;;;;;;;19.60;65.28;101378.72;5034661;28;20471;-65
2023/06/07 05:22:53;;;;;;;5.40;1.60;;;;;;;19.64;65.27;101372.22;5034607;28;20455;-66
2023/06/07 05:25:20;;;;;;;6.07;2.37;;;;;;;19.70;64.12;101374.75;5034560;28;20436;-65
2023/06/07 05:27:49;;;;;;;8.47;2.00;;;;;;;19.73;62.73;101377.63;5034568;28;20439;-66
2023/06/07 05:30:16;;;;;;;5.30;1.80;;;;;;;19.82;62.33;101374.75;5034550;28;20486;-66
2023/06/07 05:32:43;;;;;;;7.50;2.60;;;;;;;19.89;61.75;101375.78;5034209;28;20546;-66
2023/06/07 05:35:10;;;;;;;5.67;1.80;;;;;;;19.96;61.24;101375.19;5034077;28;20927;-67
2023/06/07 05:37:36;;;;;;;6.80;2.50;;;;;;;20.03;59.84;101378.19;5034431;28;20435;-65
2023/06/07 05:40:07;;;;;;;7.27;2.23;;;;;;;20.10;59.52;101385.84;5034035;28;20479;-66
2023/06/07 05:42:38;;;;;;;5.67;1.60;;;;;;;20.15;59.73;101383.66;5034333;28;20467;-67
2023/06/07 05:45:06;;;;;;;5.97;1.73;;;;;;;20.19;59.10;101378.28;5033932;28;20970;-68
2023/06/07 05:47:32;;;;;;;6.20;1.47;;;;;;;20.24;59.07;101377.22;5034423;28;20454;-67
2023/06/07 05:49:59;;;;;;;6.00;2.00;;;;;;;20.28;59.14;101386.41;5034210;28;20443;-67
2023/06/07 05:52:26;;;;;;;8.90;2.20;;;;;;;20.29;57.59;101383.28;5034107;28;20460;-66
2023/06/07 05:54:54;;;;;;;6.23;2.20;;;;;;;20.39;58.51;101373.75;5034081;28;20497;-67
2023/06/07 05:57:22;;;;;;;6.20;1.80;;;;;;;20.42;56.30;101382.13;5034061;28;20546;-68
2023/06/07 05:59:49;;;;;;;6.20;2.20;;;;;;;20.51;56.08;101384.75;5033147;28;20900;-68
2023/06/07 06:02:16;;;;;;;6.53;1.73;;;;;;;20.59;56.70;101377.50;5033693;28;20529;-66
2023/06/07 06:04:43;;;;;;;6.10;1.53;;;;;;;20.65;56.33;101373.34;5033853;28;20483;-65
2023/06/07 06:07:10;;;;;;;7.50;2.60;;;;;;;20.76;56.65;101373.63;5033623;28;20941;-67
2023/06/07 06:09:36;;;;;;;7.70;2.20;;;;;;;20.81;55.99;101376.97;5033838;28;20822;-64
2023/06/07 06:12:03;;;;;;;6.87;2.00;;;;;;;20.90;55.98;101376.81;5033530;28;20984;-66
2023/06/07 06:14:31;;;;;;;6.23;2.03;;;;;;;20.98;55.07;101383.28;5033777;28;20853;-66
2023/06/07 06:16:58;;;;;;;7.37;2.20;;;;;;;21.09;55.81;101390.69;5033574;28;20439;-67
2023/06/07 06:19:25;;;;;;;6.13;1.93;;;;;;;21.20;55.53;101376.41;5033648;28;20667;-67
2023/06/07 06:21:51;;;;;;;6.70;1.90;;;;;;;21.33;56.37;101381.50;5033658;28;20463;-66
2023/06/07 06:24:18;;;;;;;5.73;1.63;;;;;;;21.48;55.29;101379.94;5033596;28;20442;-66
2023/06/07 06:26:45;;;;;;;7.00;2.00;;;;;;;21.63;54.39;101383.81;5033799;28;20887;-66
2023/06/07 06:29:11;;;;;;;6.00;1.80;;;;;;;21.78;53.34;101384.97;5033565;28;20443;-66
2023/06/07 06:31:40;;;;;;;9.90;1.83;;;;;;;21.93;53.28;101386.91;5033399;28;20561;-66
2023/06/07 06:34:07;;;;;;;5.90;1.87;;;;;;;22.07;52.55;101392.75;5033597;28;20487;-68
2023/06/07 06:36:34;;;;;;;6.97;1.60;;;;;;;22.14;51.47;101392.16;5033887;28;20458;-66
2023/06/07 06:39:02;;;;;;;8.07;1.80;;;;;;;22.26;50.17;101383.72;5033595;28;20526;-66
2023/06/07 06:41:32;;;;;;;5.90;1.73;;;;;;;22.32;48.94;101392.56;5033441;28;20577;-69
2023/06/07 06:43:58;;;;;;;5.67;1.57;;;;;;;22.36;48.74;101388.69;5033915;28;20466;-66
2023/06/07 06:46:25;;;;;;;6.07;1.80;;;;;;;22.35;47.22;101387.09;5033343;28;20479;-68
2023/06/07 06:48:53;;;;;;;5.80;1.63;;;;;;;22.33;45.69;101394.16;5033044;28;20475;-65
2023/06/07 06:51:20;;;;;;;5.33;1.50;;;;;;;22.41;46.69;101396.69;5033294;28;20530;-65
2023/06/07 06:53:47;;;;;;;5.20;1.20;;;;;;;22.48;46.37;101398.78;5032958;28;20483;-65
2023/06/07 06:56:13;;;;;;;5.20;1.60;;;;;;;22.57;47.33;101398.59;5032833;28;20948;-66
2023/06/07 06:58:40;;;;;;;5.37;1.30;;;;;;;22.60;47.38;101403.38;5033006;28;20936;-66
2023/06/07 07:01:07;;;;;;;6.47;1.80;;;;;;;22.69;47.64;101395.69;5033444;28;20454;-66
2023/06/07 07:03:35;;;;;;;4.80;1.30;;;;;;;22.76;47.23;101401.38;5032500;28;20494;-66
2023/06/07 07:06:03;;;;;;;5.40;1.50;;;;;;;22.77;47.75;101394.66;5033197;28;20533;-66
2023/06/07 07:08:32;;;;;;;6.30;1.67;;;;;;;22.77;47.89;101397.44;5033151;28;20886;-66
2023/06/07 07:10:59;;;;;;;6.07;1.97;;;;;;;22.78;47.94;101392.69;5035510;28;20450;-65
2023/06/07 07:13:25;;;;;;;5.30;1.70;;;;;;;22.76;47.50;101398.59;5036960;28;20505;-65
2023/06/07 07:15:52;;;;;;;6.10;1.67;;;;;;;22.69;46.62;101395.69;5036846;28;20446;-66
2023/06/07 07:18:18;;;;;;;6.83;1.60;;;;;;;22.69;47.15;101401.22;5037141;28;20857;-66
2023/06/07 07:20:45;;;;;;;5.00;1.53;;;;;;;22.69;47.77;101401.22;5037174;28;20471;-65
2023/06/07 07:23:13;;;;;;;6.30;2.00;;;;;;;22.75;47.66;101399.75;5036688;28;20983;-66
2023/06/07 07:25:40;;;;;;;5.57;1.67;;;;;;;22.80;47.64;101401.41;5036204;28;20435;-67
2023/06/07 07:28:07;;;;;;;5.33;1.63;;;;;;;22.86;47.99;101403.53;5035940;28;20466;-66
2023/06/07 07:30:33;;;;;;;6.70;1.93;;;;;;;22.92;48.04;101404.06;5036904;28;20482;-66
2023/06/07 07:33:00;;;;;;;5.63;1.73;;;;;;;23.00;47.39;101399.47;5036553;28;20499;-66
2023/06/07 07:35:27;;;;;;;6.20;2.00;;;;;;;22.97;46.23;101400.19;5035944;28;20574;-66
2023/06/07 07:37:54;;;;;;;6.23;1.73;;;;;;;23.05;46.15;101407.47;5035547;28;20960;-65
2023/06/07 07:40:22;;;;;;;5.83;1.57;;;;;;;23.11;47.03;101406.03;5036375;28;20459;-65
2023/06/07 07:42:48;;;;;;;5.40;1.53;;;;;;;23.16;45.18;101411.25;5036122;28;20479;-65
2023/06/07 07:45:15;;;;;;;5.40;1.77;;;;;;;23.25;44.76;101409.03;5036316;28;21011;-65
2023/06/07 07:47:42;;;;;;;4.80;1.40;;;;;;;23.39;44.25;101408.50;5036405;28;20534;-66
2023/06/07 07:50:10;;;;;;;6.47;2.03;;;;;;;23.46;44.23;101416.88;5035521;28;20806;-66
2023/06/07 07:52:36;;;;;;;5.93;1.90;;;;;;;23.58;44.75;101410.38;5036143;28;20471;-66
2023/06/07 07:55:04;;;;;;;6.50;2.30;;;;;;;23.65;44.43;101411.34;5036302;28;20478;-65
2023/06/07 07:57:32;;;;;;;7.37;2.10;;;;;;;23.73;43.87;101406.72;5036446;28;20451;-66
2023/06/07 07:59:59;;;;;;;6.50;1.73;;;;;;;23.81;42.83;101404.84;5036059;28;20435;-66
2023/06/07 08:02:25;;;;;;;5.93;2.27;;;;;;;23.78;44.16;101416.69;5035797;28;20494;-66
2023/06/07 08:04:53;;;;;;;5.70;1.77;;;;;;;23.78;43.25;101406.41;5034987;28;20526;-67
2023/06/07 08:07:19;;;;;;;6.47;1.97;;;;;;;23.88;43.34;101405.78;5036247;28;20508;-66
2023/06/07 08:09:46;;;;;;;5.53;1.90;;;;;;;23.89;42.97;101403.78;5036250;28;20447;-66
2023/06/07 08:12:13;;;;;;;5.60;2.00;;;;;;;23.90;42.74;101400.66;5035996;28;20470;-66
2023/06/07 08:14:41;;;;;;;8.40;2.37;;;;;;;23.98;42.90;101404.34;5035854;28;20518;-67
2023/06/07 08:17:07;;;;;;;8.17;2.13;;;;;;;24.05;44.12;101403.66;5036016;28;20443;-67
2023/06/07 08:19:34;;;;;;;6.30;1.83;;;;;;;24.08;44.55;101400.13;5035773;28;20951;-66
2023/06/07 08:22:01;;;;;;;5.67;1.70;;;;;;;24.13;44.40;101402.59;5035221;28;20462;-67
2023/06/07 08:24:27;;;;;;;5.10;1.47;;;;;;;24.21;43.86;101398.72;5035974;28;20866;-65
2023/06/07 08:26:54;;;;;;;4.80;1.50;;;;;;;24.20;43.53;101396.34;5036113;28;20443;-67
2023/06/07 08:29:20;;;;;;;5.83;1.90;;;;;;;24.20;43.72;101388.81;5036008;28;20447;-66
2023/06/07 08:31:49;;;;;;;5.67;1.73;;;;;;;24.30;43.03;101387.38;5035761;28;20486;-65
2023/06/07 08:34:16;;;;;;;5.77;1.70;;;;;;;24.42;43.43;101389.94;5036239;28;20493;-66
2023/06/07 08:36:43;;;;;;;6.53;1.83;;;;;;;24.53;43.05;101390.09;5037395;28;20880;-64
2023/06/07 08:39:09;;;;;;;8.70;2.07;;;;;;;24.65;42.75;101393.41;5041542;28;20901;-66
2023/06/07 08:41:36;;;;;;;5.40;1.20;;;;;;;24.81;41.58;101395.97;5036700;28;20463;-66
2023/06/07 08:44:03;;;;;;;6.00;2.07;;;;;;;24.91;40.94;101391.72;5034935;28;20473;-67
2023/06/07 08:46:31;;;;;;;4.87;1.37;;;;;;;25.02;40.22;101384.31;5035695;28;20863;-66
2023/06/07 08:49:00;;;;;;;4.63;1.00;;;;;;;25.14;40.25;101397.13;5035478;28;20447;-66
2023/06/07 08:51:28;;;;;;;7.83;1.90;;;;;;;25.17;40.50;101390.81;5034999;28;20466;-66
2023/06/07 08:53:56;;;;;;;6.60;1.80;;;;;;;25.37;40.43;101399.75;5035353;28;20458;-66
2023/06/07 08:56:25;;;;;;;5.30;1.77;;;;;;;25.47;40.85;101393.50;5035161;28;20446;-66
2023/06/07 08:58:52;;;;;;;5.20;1.77;;;;;;;25.65;39.61;101385.31;5035266;28;20442;-66
2023/06/07 09:01:21;;;;;;;6.63;2.20;;;;;;;25.84;39.34;101390.63;5035368;28;20439;-66
2023/06/07 09:03:52;;;;;;;4.80;1.50;;;;;;;26.03;40.18;101392.34;5034899;28;20447;-66
2023/06/07 09:06:21;;;;;;;6.00;1.60;;;;;;;26.10;38.19;101391.59;5035020;28;20905;-66
2023/06/07 09:08:47;;;;;;;6.63;2.10;;;;;;;26.29;38.25;101396.06;5034377;28;20489;-66
2023/06/07 09:11:14;;;;;;;4.90;1.50;;;;;;;26.44;37.91;101383.88;5035022;28;20881;-66
2023/06/07 09:13:41;;;;;;;6.47;1.90;;;;;;;26.57;38.74;101390.66;5035096;28;20450;-66
2023/06/07 09:16:10;;;;;;;5.77;1.83;;;;;;;26.65;38.14;101402.59;5035141;28;20485;-66
2023/06/07 09:18:43;;;;;;;5.57;1.80;;;;;;;26.75;39.03;101396.28;5034716;28;20450;-65
2023/06/07 09:21:22;;;;;;;6.30;2.13;;;;;;;26.92;39.03;101401.13;5034999;28;20534;-66
2023/06/07 09:23:48;;;;;;;5.60;1.50;;;;;;;27.12;39.01;101398.00;5035383;28;20443;-65
2023/06/07 09:26:16;;;;;;;5.90;1.67;;;;;;;27.22;37.59;101390.84;5035174;28;20435;-66
2023/06/07 09:28:45;;;;;;;7.20;1.43;;;;;;;27.40;38.38;101398.03;5035019;28;20449;-66
2023/06/07 09:31:12;;;;;;;4.97;1.57;;;;;;;27.46;36.63;101392.88;5034932;28;20447;-66
2023/06/07 09:33:39;;;;;;;7.50;2.03;;;;;;;27.55;38.17;101398.84;5032946;28;20618;-67
2023/06/07 09:36:09;;;;;;;5.40;1.80;;;;;;;27.57;36.22;101392.84;5034778;28;20561;-66
2023/06/07 09:38:37;;;;;;;5.40;1.83;;;;;;;27.55;35.78;101398.03;5034562;28;20447;-68
2023/06/07 09:41:05;;;;;;;5.07;1.50;;;;;;;27.44;36.43;101395.22;5034860;28;20554;-65
2023/06/07 09:43:46;;;;;;;5.20;1.40;;;;;;;27.41;37.65;101391.28;5034232;28;20466;-66
2023/06/07 09:46:13;;;;;;;8.47;1.77;;;;;;;27.48;37.29;101386.91;5034504;28;20491;-66
2023/06/07 09:48:47;;;;;;;5.23;1.60;;;;;;;27.41;36.60;101385.72;5034649;28;20826;-66
2023/06/07 09:51:14;;;;;;;6.83;1.70;;;;;;;27.49;37.15;101380.13;5034597;28;20531;-64
2023/06/07 09:53:53;;;;;;;12.73;2.00;;;;;;;27.38;36.82;101380.13;5034729;28;20458;-66
2023/06/07 09:56:21;;;;;;;4.80;1.40;;;;;;;27.46;37.28;101375.38;5032194;28;20487;-67
2023/06/07 09:58:50;;;;;;;5.20;1.40;;;;;;;27.57;36.97;101384.50;5034255;28;20834;-66
2023/06/07 10:01:32;;;;;;;5.17;1.63;;;;;;;27.65;36.10;101380.53;5033901;28;20842;-66
2023/06/07 10:04:00;;;;;;;7.43;1.80;;;;;;;27.74;36.12;101380.94;5034289;28;20513;-66
2023/06/07 10:06:29;;;;;;;5.10;1.67;;;;;;;27.71;36.82;101380.91;5034246;28;20534;-66
2023/06/07 10:09:01;;;;;;;5.60;1.50;;;;;;;27.88;37.29;101371.78;5034264;28;20554;-66
2023/06/07 10:11:28;;;;;;;5.53;1.70;;;;;;;28.03;36.65;101381.69;5034056;28;20427;-66
2023/06/07 10:13:57;;;;;;;6.07;1.80;;;;;;;28.18;36.46;101379.66;5034083;28;20453;-65
2023/06/07 10:16:25;;;;;;;5.37;1.47;;;;;;;28.31;36.16;101375.25;5033789;28;20570;-69
2023/06/07 10:18:56;;;;;;;5.20;1.63;;;;;;;28.52;35.60;101373.59;5033835;28;20439;-65
2023/06/07 10:21:25;;;;;;;5.37;1.60;;;;;;;28.65;34.64;101369.16;5033883;28;20427;-66
2023/06/07 10:23:55;;;;;;;5.80;1.93;;;;;;;28.79;33.53;101374.66;5033738;28;20932;-66
2023/06/07 10:26:32;;;;;;;5.23;1.90;;;;;;;29.03;34.87;101374.94;5033463;28;20925;-66
2023/06/07 10:29:06;;;;;;;5.80;1.77;;;;;;;29.29;34.38;101368.75;5033322;28;20431;-66
2023/06/07 10:31:37;;;;;;;7.50;2.27;;;;;;;29.36;33.51;101365.91;5033321;28;20907;-66
2023/06/07 10:34:07;;;;;;;5.00;1.80;;;;;;;29.35;33.90;101367.13;5033322;28;20434;-69
2023/06/07 10:36:37;;;;;;;8.67;1.60;;;;;;;29.31;33.08;101360.78;5033492;28;20490;-66
2023/06/07 10:39:03;;;;;;;5.03;1.80;;;;;;;29.36;33.68;101365.91;5033419;28;20478;-66
2023/06/07 10:41:33;;;;;;;6.03;2.03;;;;;;;29.40;33.98;101351.94;5033284;28;20486;-66
2023/06/07 10:44:01;;;;;;;6.50;2.00;;;;;;;29.31;33.82;101357.19;5033077;28;21039;-66
2023/06/07 10:46:28;;;;;;;5.40;1.80;;;;;;;29.16;33.43;101359.28;5033333;28;20443;-68
2023/06/07 10:48:56;;;;;;;5.70;1.93;;;;;;;29.27;33.82;101360.00;5033386;28;20485;-68
2023/06/07 10:52:00;;;;;;;6.70;1.87;;;;;;;29.08;33.97;101352.16;5032761;28;20549;-68
2023/06/07 10:54:31;;;;;;;5.27;1.93;;;;;;;29.12;33.16;101361.31;5033249;28;20487;-68
2023/06/07 10:57:00;;;;;;;5.27;1.73;;;;;;;28.98;34.28;101361.41;5032962;28;20458;-70
2023/06/07 10:59:27;;;;;;;4.70;1.47;;;;;;;29.03;33.69;101353.41;5033014;28;20958;-68
2023/06/07 11:01:55;;;;;;;6.43;1.87;;;;;;;29.11;34.10;101343.78;5032908;28;20478;-69
2023/06/07 11:04:53;;;;;;;7.10;1.30;;;;;;;29.30;33.31;101336.84;5032838;28;21009;-71
2023/06/07 11:07:22;;;;;;;9.93;1.90;;;;;;;29.53;32.26;101338.22;5033094;28;20455;-70
2023/06/07 11:09:49;;;;;;;6.07;1.83;;;;;;;29.75;34.00;101336.88;5033101;28;20474;-70
2023/06/07 11:12:53;;;;;;;6.10;1.97;;;;;;;30.01;33.42;101340.94;5032971;28;20463;-69
2023/06/07 11:15:25;;;;;;;4.73;1.60;;;;;;;30.18;31.87;101344.78;5032930;28;20482;-68
2023/06/07 11:17:53;;;;;;;6.60;1.70;;;;;;;30.27;31.40;101339.47;5033011;28;20790;-70
2023/06/07 11:20:49;;;;;;;5.40;1.57;;;;;;;30.66;31.55;101340.97;5032625;28;20932;-71
2023/06/07 11:23:24;;;;;;;5.37;1.87;;;;;;;31.19;30.90;101342.19;5026629;28;21036;-71
2023/06/07 11:25:52;;;;;;;5.63;1.77;;;;;;;31.42;30.58;101340.63;5032657;28;20478;-70
2023/06/07 11:28:22;;;;;;;4.70;1.50;;;;;;;31.93;30.16;101344.94;5032618;28;20956;-71